createdAt,value
2023-11-12T00:00:43.108Z,100760.09
2023-11-12T00:01:46.613Z,100751.69
2023-11-12T00:02:49.288Z,100749.84
2023-11-12T00:03:53.036Z,100749.03
2023-11-12T00:04:56.202Z,100754.31
2023-11-12T00:06:00.083Z,100751.38
2023-11-12T00:07:04.344Z,100750.06
2023-11-12T00:08:08.153Z,100743.19
2023-11-12T00:09:11.215Z,100737.69
2023-11-12T00:10:14.994Z,100734.50
2023-11-12T00:11:18.061Z,100737.16
2023-11-12T00:12:22.159Z,100745.03
2023-11-12T00:13:27.049Z,100741.88
2023-11-12T00:14:30.757Z,100742.41
2023-11-12T00:15:33.313Z,100738.19
2023-11-12T00:16:37.844Z,100733.16
2023-11-12T00:17:42.508Z,100729.25
2023-11-12T00:18:46.443Z,100728.41
2023-11-12T00:19:49.200Z,100728.16
2023-11-12T00:20:53.172Z,100730.25
2023-11-12T00:21:55.791Z,100735.00
2023-11-12T00:23:00.954Z,100730.50
2023-11-12T00:24:04.471Z,100726.56
2023-11-12T00:25:07.890Z,100730.47
2023-11-12T00:26:11.725Z,100726.25
2023-11-12T00:27:14.421Z,100718.34
2023-11-12T00:28:18.275Z,100715.69
2023-11-12T00:29:22.417Z,100712.00
2023-11-12T00:30:26.230Z,100703.00
2023-11-12T00:31:28.969Z,100707.72
2023-11-12T00:32:34.140Z,100700.59
2023-11-12T00:33:38.586Z,100702.19
2023-11-12T00:34:43.652Z,100713.78
2023-11-12T00:35:46.687Z,100698.44
2023-11-12T00:36:50.870Z,100696.59
2023-11-12T00:37:55.039Z,100696.34
2023-11-12T00:38:59.033Z,100693.69
2023-11-12T00:40:01.664Z,100678.91
2023-11-12T00:41:07.412Z,100686.00
2023-11-12T00:42:16.536Z,100682.03
2023-11-12T00:43:21.805Z,100679.38
2023-11-12T00:44:26.411Z,100682.31
2023-11-12T00:45:30.970Z,100677.63
2023-11-12T00:46:34.954Z,100687.66
2023-11-12T00:47:39.392Z,100684.19
2023-11-12T00:48:42.137Z,100688.78
2023-11-12T00:49:45.752Z,100691.63
2023-11-12T00:50:49.769Z,100683.72
2023-11-12T00:51:53.542Z,100679.19
2023-11-12T00:52:56.164Z,100684.47
2023-11-12T00:53:59.626Z,100686.84
2023-11-12T00:55:08.535Z,100682.13
2023-11-12T00:56:12.352Z,100684.53
2023-11-12T00:57:15.015Z,100697.97
2023-11-12T00:58:18.707Z,100694.53
2023-11-12T00:59:21.538Z,100687.66
2023-11-12T01:00:26.829Z,100680.00
2023-11-12T01:01:29.573Z,100688.47
2023-11-12T01:02:33.507Z,100688.47
2023-11-12T01:03:36.524Z,100684.75
2023-11-12T01:04:40.818Z,100684.47
2023-11-12T01:05:43.349Z,100676.53
2023-11-12T01:06:46.945Z,100676.81
2023-11-12T01:07:49.669Z,100674.41
2023-11-12T01:08:53.790Z,100678.63
2023-11-12T01:09:57.027Z,100673.09
2023-11-12T01:11:01.115Z,100678.66
2023-11-12T01:12:04.519Z,100686.56
2023-11-12T01:13:08.735Z,100688.63
2023-11-12T01:14:11.999Z,100697.34
2023-11-12T01:15:17.426Z,100700.25
2023-11-12T01:16:21.723Z,100700.78
2023-11-12T01:17:25.411Z,100695.22
2023-11-12T01:18:28.321Z,100693.94
2023-11-12T01:19:32.062Z,100703.66
2023-11-12T01:20:37.516Z,100696.53
2023-11-12T01:21:41.918Z,100695.97
2023-11-12T01:22:44.892Z,100688.63
2023-11-12T01:23:48.702Z,100686.47
2023-11-12T01:24:51.780Z,100685.16
2023-11-12T01:25:56.223Z,100685.94
2023-11-12T01:27:02.318Z,100688.03
2023-11-12T01:28:05.416Z,100694.38
2023-11-12T01:29:09.338Z,100683.31
2023-11-12T01:30:12.463Z,100685.41
2023-11-12T01:31:16.836Z,100681.47
2023-11-12T01:32:21.150Z,100679.09
2023-11-12T01:33:24.706Z,100688.59
2023-11-12T01:34:27.237Z,100687.28
2023-11-12T01:35:30.789Z,100699.19
2023-11-12T01:36:34.299Z,100692.34
2023-11-12T01:37:37.962Z,100696.59
2023-11-12T01:38:40.490Z,100690.28
2023-11-12T01:39:43.937Z,100691.34
2023-11-12T01:40:47.218Z,100689.81
2023-11-12T01:41:50.155Z,100684.00
2023-11-12T01:42:54.070Z,100691.44
2023-11-12T01:43:56.921Z,100688.28
2023-11-12T01:45:01.651Z,100693.56
2023-11-12T01:46:06.786Z,100683.78
2023-11-12T01:47:11.659Z,100689.84
2023-11-12T01:48:17.045Z,100683.25
2023-11-12T01:49:22.896Z,100683.53
2023-11-12T01:50:25.827Z,100672.44
2023-11-12T01:51:31.691Z,100679.06
2023-11-12T01:52:35.445Z,100676.22
2023-11-12T01:53:42.232Z,100676.50
2023-11-12T01:54:46.236Z,100677.88
2023-11-12T01:55:50.291Z,100677.88
2023-11-12T01:56:56.746Z,100681.06
2023-11-12T01:58:00.183Z,100670.00
2023-11-12T01:59:05.300Z,100676.06
2023-11-12T02:00:12.750Z,100680.81
2023-11-12T02:01:17.344Z,100676.84
2023-11-12T02:02:20.966Z,100680.28
2023-11-12T02:03:27.691Z,100678.44
2023-11-12T02:04:32.275Z,100687.38
2023-11-12T02:05:35.021Z,100690.03
2023-11-12T02:06:39.977Z,100689.75
2023-11-12T02:07:44.033Z,100689.22
2023-11-12T02:08:48.370Z,100692.66
2023-11-12T02:09:56.531Z,100694.25
2023-11-12T02:11:03.078Z,100692.66
2023-11-12T02:12:08.182Z,100692.13
2023-11-12T02:13:13.948Z,100693.16
2023-11-12T02:14:17.975Z,100695.25
2023-11-12T02:15:20.779Z,100692.09
2023-11-12T02:16:24.498Z,100699.75
2023-11-12T02:17:29.264Z,100695.53
2023-11-12T02:18:34.499Z,100699.22
2023-11-12T02:19:37.454Z,100707.91
2023-11-12T02:20:46.526Z,100711.91
2023-11-12T02:21:49.315Z,100708.47
2023-11-12T02:22:53.081Z,100718.78
2023-11-12T02:23:57.213Z,100719.03
2023-11-12T02:25:01.623Z,100726.38
2023-11-12T02:26:05.353Z,100719.81
2023-11-12T02:27:09.802Z,100722.72
2023-11-12T02:28:17.422Z,100723.72
2023-11-12T02:29:23.364Z,100716.31
2023-11-12T02:30:27.609Z,100722.66
2023-11-12T02:31:31.635Z,100721.09
2023-11-12T02:32:36.290Z,100723.47
2023-11-12T02:33:40.345Z,100720.28
2023-11-12T02:34:44.317Z,100717.69
2023-11-12T02:35:47.869Z,100710.06
2023-11-12T02:36:53.376Z,100720.06
2023-11-12T02:37:56.122Z,100716.63
2023-11-12T02:39:02.351Z,100716.13
2023-11-12T02:40:06.996Z,100713.50
2023-11-12T02:41:11.808Z,100712.72
2023-11-12T02:42:19.009Z,100711.13
2023-11-12T02:43:23.271Z,100711.34
2023-11-12T02:44:26.527Z,100712.41
2023-11-12T02:45:30.377Z,100711.34
2023-11-12T02:46:33.268Z,100712.72
2023-11-12T02:47:37.243Z,100706.91
2023-11-12T02:49:01.081Z,100704.34
2023-11-12T02:50:26.308Z,100707.59
2023-11-12T02:51:29.888Z,100707.88
2023-11-12T02:52:33.774Z,100707.31
2023-11-12T02:53:36.950Z,100717.38
2023-11-12T02:54:42.238Z,100725.47
2023-11-12T02:55:45.892Z,100727.59
2023-11-12T02:56:49.787Z,100729.19
2023-11-12T02:57:52.754Z,100727.09
2023-11-12T02:58:56.821Z,100727.06
2023-11-12T02:59:59.677Z,100729.69
2023-11-12T03:01:03.582Z,100731.53
2023-11-12T03:02:06.962Z,100732.63
2023-11-12T03:03:14.407Z,100730.03
2023-11-12T03:04:17.646Z,100733.44
2023-11-12T03:05:21.966Z,100736.06
2023-11-12T03:06:26.209Z,100731.31
2023-11-12T03:07:29.083Z,100735.53
2023-11-12T03:08:33.346Z,100735.25
2023-11-12T03:09:35.927Z,100737.88
2023-11-12T03:10:43.593Z,100739.97
2023-11-12T03:11:47.516Z,100742.03
2023-11-12T03:12:50.245Z,100742.31
2023-11-12T03:13:54.368Z,100734.13
2023-11-12T03:14:57.268Z,100740.66
2023-11-12T03:16:01.151Z,100742.75
2023-11-12T03:17:04.012Z,100737.22
2023-11-12T03:18:08.316Z,100738.28
2023-11-12T03:19:12.305Z,100742.25
2023-11-12T03:20:17.568Z,100742.28
2023-11-12T03:21:20.469Z,100739.16
2023-11-12T03:22:24.407Z,100740.03
2023-11-12T03:23:27.291Z,100738.44
2023-11-12T03:24:31.563Z,100737.41
2023-11-12T03:25:34.425Z,100734.22
2023-11-12T03:26:40.332Z,100722.34
2023-11-12T03:27:43.387Z,100723.13
2023-11-12T03:28:48.447Z,100730.78
2023-11-12T03:29:55.660Z,100741.31
2023-11-12T03:30:58.534Z,100742.63
2023-11-12T03:32:02.379Z,100749.47
2023-11-12T03:33:05.729Z,100743.66
2023-11-12T03:34:10.052Z,100747.09
2023-11-12T03:35:13.295Z,100759.53
2023-11-12T03:36:17.467Z,100755.84
2023-11-12T03:37:21.176Z,100765.56
2023-11-12T03:38:25.477Z,100762.94
2023-11-12T03:39:28.684Z,100762.44
2023-11-12T03:40:32.506Z,100761.91
2023-11-12T03:41:38.586Z,100761.34
2023-11-12T03:42:45.219Z,100764.50
2023-11-12T03:43:48.049Z,100772.13
2023-11-12T03:44:52.173Z,100772.16
2023-11-12T03:45:55.087Z,100768.72
2023-11-12T03:46:58.919Z,100778.75
2023-11-12T03:48:01.811Z,100768.47
2023-11-12T03:49:07.209Z,100776.66
2023-11-12T03:50:10.081Z,100766.63
2023-11-12T03:51:13.728Z,100773.72
2023-11-12T03:52:16.730Z,100776.34
2023-11-12T03:53:20.397Z,100780.00
2023-11-12T03:54:24.608Z,100782.63
2023-11-12T03:55:28.398Z,100775.53
2023-11-12T03:56:31.424Z,100777.34
2023-11-12T03:57:35.919Z,100776.03
2023-11-12T03:58:40.207Z,100782.59
2023-11-12T03:59:45.047Z,100782.06
2023-11-12T04:00:47.990Z,100774.69
2023-11-12T04:01:51.879Z,100778.06
2023-11-12T04:02:54.680Z,100775.72
2023-11-12T04:03:58.955Z,100778.91
2023-11-12T04:05:01.992Z,100784.69
2023-11-12T04:06:06.685Z,100779.72
2023-11-12T04:07:09.482Z,100787.59
2023-11-12T04:08:13.122Z,100781.31
2023-11-12T04:09:15.953Z,100791.03
2023-11-12T04:10:19.922Z,100789.69
2023-11-12T04:11:22.696Z,100793.94
2023-11-12T04:12:26.236Z,100798.63
2023-11-12T04:13:28.993Z,100794.13
2023-11-12T04:14:34.029Z,100795.44
2023-11-12T04:15:37.150Z,100795.41
2023-11-12T04:16:42.116Z,100789.59
2023-11-12T04:17:44.996Z,100797.72
2023-11-12T04:18:49.908Z,100792.25
2023-11-12T04:19:53.319Z,100798.31
2023-11-12T04:20:57.321Z,100800.94
2023-11-12T04:21:59.980Z,100806.97
2023-11-12T04:23:04.418Z,100804.91
2023-11-12T04:24:09.031Z,100796.50
2023-11-12T04:25:13.270Z,100799.41
2023-11-12T04:26:16.402Z,100800.66
2023-11-12T04:27:20.559Z,100806.97
2023-11-12T04:28:27.264Z,100808.31
2023-11-12T04:29:31.219Z,100812.53
2023-11-12T04:30:36.241Z,100805.44
2023-11-12T04:31:40.843Z,100810.94
2023-11-12T04:32:46.232Z,100813.59
2023-11-12T04:33:50.800Z,100814.41
2023-11-12T04:34:54.201Z,100819.38
2023-11-12T04:35:57.988Z,100823.56
2023-11-12T04:37:02.387Z,100823.25
2023-11-12T04:38:04.988Z,100817.50
2023-11-12T04:39:09.276Z,100811.19
2023-11-12T04:40:14.664Z,100818.56
2023-11-12T04:41:19.204Z,100813.56
2023-11-12T04:42:22.170Z,100804.94
2023-11-12T04:43:26.098Z,100814.69
2023-11-12T04:44:29.146Z,100824.41
2023-11-12T04:45:33.162Z,100831.22
2023-11-12T04:46:38.447Z,100832.78
2023-11-12T04:47:42.501Z,100837.78
2023-11-12T04:48:45.700Z,100835.94
2023-11-12T04:49:49.787Z,100828.84
2023-11-12T04:50:52.857Z,100817.81
2023-11-12T04:51:56.681Z,100814.63
2023-11-12T04:53:01.306Z,100804.44
2023-11-12T04:54:06.778Z,100805.53
2023-11-12T04:55:10.312Z,100814.16
2023-11-12T04:56:13.650Z,100822.50
2023-11-12T04:57:17.710Z,100822.75
2023-11-12T04:58:21.068Z,100832.19
2023-11-12T04:59:26.144Z,100824.03
2023-11-12T05:00:28.974Z,100826.44
2023-11-12T05:01:33.282Z,100824.88
2023-11-12T05:02:37.745Z,100826.47
2023-11-12T05:03:42.030Z,100833.59
2023-11-12T05:04:45.449Z,100843.56
2023-11-12T05:05:50.265Z,100838.63
2023-11-12T05:06:53.176Z,100831.78
2023-11-12T05:07:57.228Z,100829.19
2023-11-12T05:09:01.171Z,100824.97
2023-11-12T05:10:07.274Z,100816.53
2023-11-12T05:11:10.404Z,100830.44
2023-11-12T05:12:16.973Z,100839.44
2023-11-12T05:13:19.794Z,100843.38
2023-11-12T05:14:23.579Z,100837.66
2023-11-12T05:15:26.810Z,100837.38
2023-11-12T05:16:30.854Z,100843.25
2023-11-12T05:17:34.015Z,100833.28
2023-11-12T05:18:41.383Z,100827.13
2023-11-12T05:19:45.651Z,100829.25
2023-11-12T05:20:49.008Z,100828.22
2023-11-12T05:21:53.158Z,100830.38
2023-11-12T05:22:56.469Z,100829.84
2023-11-12T05:24:02.103Z,100840.59
2023-11-12T05:25:07.244Z,100830.78
2023-11-12T05:26:10.963Z,100845.47
2023-11-12T05:27:13.927Z,100850.44
2023-11-12T05:28:21.127Z,100853.34
2023-11-12T05:29:24.005Z,100854.03
2023-11-12T05:30:28.721Z,100855.84
2023-11-12T05:31:34.375Z,100862.63
2023-11-12T05:32:38.101Z,100859.91
2023-11-12T05:33:43.350Z,100861.22
2023-11-12T05:34:47.538Z,100863.00
2023-11-12T05:35:50.357Z,100866.44
2023-11-12T05:36:54.043Z,100864.03
2023-11-12T05:37:57.037Z,100869.31
2023-11-12T05:39:01.490Z,100871.16
2023-11-12T05:40:04.477Z,100871.69
2023-11-12T05:41:08.770Z,100873.50
2023-11-12T05:42:13.484Z,100879.88
2023-11-12T05:43:18.252Z,100880.75
2023-11-12T05:44:22.204Z,100881.66
2023-11-12T05:45:26.328Z,100884.00
2023-11-12T05:46:29.533Z,100892.97
2023-11-12T05:47:33.759Z,100894.72
2023-11-12T05:48:36.737Z,100896.38
2023-11-12T05:49:42.461Z,100895.31
2023-11-12T05:50:46.749Z,100890.84
2023-11-12T05:51:50.416Z,100888.72
2023-11-12T05:52:54.432Z,100890.47
2023-11-12T05:54:00.228Z,100892.50
2023-11-12T05:55:05.704Z,100895.13
2023-11-12T05:56:09.797Z,100904.44
2023-11-12T05:57:12.860Z,100902.38
2023-11-12T05:58:17.949Z,100909.44
2023-11-12T05:59:22.220Z,100913.53
2023-11-12T06:00:27.899Z,100915.13
2023-11-12T06:01:31.281Z,100911.50
2023-11-12T06:02:36.988Z,100901.47
2023-11-12T06:03:40.157Z,100907.50
2023-11-12T06:04:45.907Z,100902.03
2023-11-12T06:05:48.889Z,100905.00
2023-11-12T06:06:53.240Z,100909.00
2023-11-12T06:07:56.730Z,100913.22
2023-11-12T06:09:01.039Z,100908.88
2023-11-12T06:10:04.471Z,100906.72
2023-11-12T06:11:08.442Z,100902.00
2023-11-12T06:12:11.280Z,100901.19
2023-11-12T06:13:15.604Z,100903.69
2023-11-12T06:14:19.861Z,100902.63
2023-11-12T06:15:27.793Z,100907.78
2023-11-12T06:16:30.542Z,100905.97
2023-11-12T06:17:34.549Z,100910.25
2023-11-12T06:18:37.494Z,100916.16
2023-11-12T06:19:41.603Z,100910.34
2023-11-12T06:20:45.925Z,100915.56
2023-11-12T06:21:50.823Z,100907.78
2023-11-12T06:22:53.711Z,100913.13
2023-11-12T06:23:58.344Z,100912.28
2023-11-12T06:25:01.349Z,100920.88
2023-11-12T06:26:05.710Z,100920.00
2023-11-12T06:27:08.725Z,100922.47
2023-11-12T06:28:12.942Z,100926.41
2023-11-12T06:29:15.565Z,100926.53
2023-11-12T06:30:19.975Z,100931.00
2023-11-12T06:31:22.949Z,100933.63
2023-11-12T06:32:26.679Z,100942.91
2023-11-12T06:33:29.816Z,100939.47
2023-11-12T06:34:33.764Z,100946.81
2023-11-12T06:35:36.479Z,100948.44
2023-11-12T06:36:41.860Z,100952.25
2023-11-12T06:37:44.993Z,100956.16
2023-11-12T06:38:49.053Z,100955.31
2023-11-12T06:39:51.891Z,100956.31
2023-11-12T06:40:55.736Z,100954.97
2023-11-12T06:41:58.495Z,100951.47
2023-11-12T06:43:02.286Z,100951.22
2023-11-12T06:44:05.573Z,100953.94
2023-11-12T06:45:10.096Z,100960.03
2023-11-12T06:46:13.455Z,100961.38
2023-11-12T06:47:17.977Z,100959.59
2023-11-12T06:48:20.960Z,100967.47
2023-11-12T06:49:24.782Z,100961.88
2023-11-12T06:50:27.512Z,100967.91
2023-11-12T06:51:32.726Z,100961.06
2023-11-12T06:52:37.266Z,100957.91
2023-11-12T06:53:42.649Z,100969.00
2023-11-12T06:54:45.723Z,100964.66
2023-11-12T06:55:50.346Z,100972.38
2023-11-12T06:56:56.654Z,100983.41
2023-11-12T06:58:00.753Z,100974.31
2023-11-12T06:59:03.765Z,100970.38
2023-11-12T07:00:09.843Z,100977.16
2023-11-12T07:01:13.021Z,100975.56
2023-11-12T07:02:17.670Z,100979.50
2023-11-12T07:03:20.657Z,100983.63
2023-11-12T07:04:23.676Z,100983.13
2023-11-12T07:05:31.853Z,100984.78
2023-11-12T07:06:35.141Z,100980.31
2023-11-12T07:07:41.170Z,100985.84
2023-11-12T07:08:44.616Z,100977.25
2023-11-12T07:09:49.225Z,100979.63
2023-11-12T07:10:52.918Z,100996.41
2023-11-12T07:11:58.350Z,100997.97
2023-11-12T07:13:02.363Z,101003.97
2023-11-12T07:14:06.738Z,101010.50
2023-11-12T07:15:10.417Z,101006.28
2023-11-12T07:16:18.304Z,101019.47
2023-11-12T07:17:21.379Z,101028.41
2023-11-12T07:18:25.299Z,101028.75
2023-11-12T07:19:28.148Z,101030.88
2023-11-12T07:20:34.025Z,101038.78
2023-11-12T07:21:37.207Z,101038.03
2023-11-12T07:22:43.976Z,101032.56
2023-11-12T07:23:47.085Z,101028.91
2023-11-12T07:24:51.614Z,101031.59
2023-11-12T07:25:54.541Z,101024.00
2023-11-12T07:26:58.192Z,101019.53
2023-11-12T07:28:00.933Z,101027.22
2023-11-12T07:29:04.833Z,101034.44
2023-11-12T07:30:09.067Z,101033.41
2023-11-12T07:31:13.133Z,101038.97
2023-11-12T07:32:16.029Z,101041.91
2023-11-12T07:33:20.199Z,101047.50
2023-11-12T07:34:23.740Z,101052.00
2023-11-12T07:35:28.041Z,101053.50
2023-11-12T07:36:31.032Z,101060.31
2023-11-12T07:37:34.654Z,101061.00
2023-11-12T07:38:39.888Z,101072.94
2023-11-12T07:39:43.625Z,101068.47
2023-11-12T07:40:46.118Z,101064.84
2023-11-12T07:41:49.898Z,101071.22
2023-11-12T07:42:54.245Z,101074.72
2023-11-12T07:43:58.969Z,101076.84
2023-11-12T07:45:07.008Z,101083.84
2023-11-12T07:46:16.144Z,101078.91
2023-11-12T07:47:18.971Z,101085.81
2023-11-12T07:48:21.615Z,101093.78
2023-11-12T07:49:25.668Z,101097.94
2023-11-12T07:50:29.711Z,101097.66
2023-11-12T07:51:34.166Z,101096.34
2023-11-12T07:52:37.594Z,101106.84
2023-11-12T07:53:42.587Z,101116.38
2023-11-12T07:54:45.479Z,101111.94
2023-11-12T07:55:49.304Z,101115.41
2023-11-12T07:56:52.279Z,101118.09
2023-11-12T07:57:56.212Z,101121.97
2023-11-12T07:58:59.062Z,101119.66
2023-11-12T08:00:04.016Z,101110.19
2023-11-12T08:01:06.963Z,101122.44
2023-11-12T08:02:10.600Z,101123.22
2023-11-12T08:03:13.190Z,101116.41
2023-11-12T08:04:16.858Z,101104.88
2023-11-12T08:05:19.864Z,101108.03
2023-11-12T08:06:23.891Z,101109.16
2023-11-12T08:07:27.908Z,101112.03
2023-11-12T08:08:31.659Z,101110.75
2023-11-12T08:09:37.602Z,101122.38
2023-11-12T08:10:41.074Z,101118.19
2023-11-12T08:11:44.881Z,101116.88
2023-11-12T08:12:48.067Z,101114.00
2023-11-12T08:13:52.023Z,101115.59
2023-11-12T08:14:56.082Z,101106.91
2023-11-12T08:16:04.230Z,101108.50
2023-11-12T08:17:09.251Z,101111.16
2023-11-12T08:18:14.193Z,101121.16
2023-11-12T08:19:17.144Z,101124.06
2023-11-12T08:20:21.186Z,101123.00
2023-11-12T08:21:23.998Z,101125.13
2023-11-12T08:22:28.368Z,101126.16
2023-11-12T08:23:32.079Z,101127.75
2023-11-12T08:24:37.832Z,101126.69
2023-11-12T08:25:41.655Z,101137.28
2023-11-12T08:26:45.701Z,101136.72
2023-11-12T08:27:49.027Z,101147.81
2023-11-12T08:28:54.786Z,101142.25
2023-11-12T08:29:57.991Z,101153.88
2023-11-12T08:31:02.574Z,101148.88
2023-11-12T08:32:06.934Z,101144.09
2023-11-12T08:33:11.249Z,101142.00
2023-11-12T08:34:14.374Z,101139.88
2023-11-12T08:35:19.881Z,101132.50
2023-11-12T08:36:23.768Z,101134.59
2023-11-12T08:37:29.215Z,101112.97
2023-11-12T08:38:32.829Z,101116.41
2023-11-12T08:39:39.000Z,101107.38
2023-11-12T08:40:44.555Z,101104.97
2023-11-12T08:41:49.101Z,101108.56
2023-11-12T08:42:51.905Z,101115.91
2023-11-12T08:43:57.101Z,101129.06
2023-11-12T08:44:59.838Z,101136.63
2023-11-12T08:46:04.008Z,101140.50
2023-11-12T08:47:07.399Z,101148.78
2023-11-12T08:48:11.518Z,101155.59
2023-11-12T08:49:14.627Z,101146.19
2023-11-12T08:50:17.929Z,101148.53
2023-11-12T08:51:22.348Z,101151.13
2023-11-12T08:52:25.490Z,101148.88
2023-11-12T08:53:29.663Z,101150.34
2023-11-12T08:54:32.691Z,101149.69
2023-11-12T08:55:37.936Z,101154.59
2023-11-12T08:56:40.906Z,101154.19
2023-11-12T08:57:45.351Z,101154.53
2023-11-12T08:58:48.881Z,101164.84
2023-11-12T08:59:55.240Z,101162.75
2023-11-12T09:00:59.396Z,101160.31
2023-11-12T09:02:02.574Z,101162.81
2023-11-12T09:03:08.190Z,101158.59
2023-11-12T09:04:11.424Z,101159.53
2023-11-12T09:05:15.771Z,101153.63
2023-11-12T09:06:19.776Z,101151.88
2023-11-12T09:07:24.792Z,101154.19
2023-11-12T09:08:27.822Z,101156.16
2023-11-12T09:09:34.637Z,101158.59
2023-11-12T09:10:39.668Z,101162.25
2023-11-12T09:11:43.842Z,101159.91
2023-11-12T09:12:46.835Z,101169.41
2023-11-12T09:13:51.926Z,101179.69
2023-11-12T09:14:56.942Z,101191.06
2023-11-12T09:16:01.974Z,101198.53
2023-11-12T09:17:05.270Z,101202.34
2023-11-12T09:18:10.987Z,101210.03
2023-11-12T09:19:15.293Z,101201.13
2023-11-12T09:20:19.723Z,101212.00
2023-11-12T09:21:25.356Z,101208.28
2023-11-12T09:22:31.606Z,101206.31
2023-11-12T09:23:34.528Z,101206.50
2023-11-12T09:24:48.126Z,101216.00
2023-11-12T09:26:00.911Z,101219.19
2023-11-12T09:27:06.355Z,101213.91
2023-11-12T09:28:09.326Z,101212.63
2023-11-12T09:29:13.218Z,101207.97
2023-11-12T09:30:16.590Z,101212.91
2023-11-12T09:31:21.467Z,101210.59
2023-11-12T09:32:24.395Z,101215.50
2023-11-12T09:33:29.027Z,101218.88
2023-11-12T09:34:33.270Z,101219.00
2023-11-12T09:35:37.606Z,101212.97
2023-11-12T09:36:40.282Z,101208.53
2023-11-12T09:37:44.341Z,101212.63
2023-11-12T09:38:48.325Z,101214.28
2023-11-12T09:39:52.219Z,101217.34
2023-11-12T09:41:00.102Z,101222.16
2023-11-12T09:42:08.304Z,101218.69
2023-11-12T09:43:14.956Z,101219.47
2023-11-12T09:44:20.498Z,101213.28
2023-11-12T09:45:25.118Z,101215.66
2023-11-12T09:46:29.741Z,101216.78
2023-11-12T09:47:50.204Z,101215.16
2023-11-12T09:48:55.312Z,101220.34
2023-11-12T09:49:58.456Z,101225.47
2023-11-12T09:51:07.154Z,101222.19
2023-11-12T09:52:10.094Z,101219.00
2023-11-12T09:53:14.852Z,101228.19
2023-11-12T09:54:21.053Z,101228.28
2023-11-12T09:55:25.003Z,101228.19
2023-11-12T09:56:29.640Z,101226.13
2023-11-12T09:57:34.488Z,101233.97
2023-11-12T09:58:39.092Z,101239.16
2023-11-12T09:59:42.912Z,101252.25
2023-11-12T10:00:47.615Z,101252.66
2023-11-12T10:01:51.479Z,101256.75
2023-11-12T10:02:58.338Z,101254.41
2023-11-12T10:04:03.544Z,101259.44
2023-11-12T10:05:11.865Z,101259.84
2023-11-12T10:06:15.206Z,101267.56
2023-11-12T10:07:20.164Z,101263.38
2023-11-12T10:08:24.473Z,101274.03
2023-11-12T10:09:29.679Z,101278.47
2023-11-12T10:10:33.017Z,101273.63
2023-11-12T10:11:39.591Z,101282.28
2023-11-12T10:12:49.315Z,101286.25
2023-11-12T10:13:54.523Z,101275.19
2023-11-12T10:15:02.679Z,101282.44
2023-11-12T10:16:23.675Z,101278.81
2023-11-12T10:17:27.199Z,101275.84
2023-11-12T10:18:31.486Z,101280.34
2023-11-12T10:19:35.839Z,101277.78
2023-11-12T10:20:41.465Z,101277.03
2023-11-12T10:22:04.989Z,101274.31
2023-11-12T10:23:32.557Z,101268.25
2023-11-12T10:24:44.285Z,101265.97
2023-11-12T10:25:50.257Z,101265.34
2023-11-12T10:26:55.412Z,101260.41
2023-11-12T10:28:00.540Z,101260.09
2023-11-12T10:29:07.562Z,101263.56
2023-11-12T10:30:24.542Z,101272.41
2023-11-12T10:31:40.003Z,101271.22
2023-11-12T10:32:43.554Z,101275.91
2023-11-12T10:34:02.971Z,101277.72
2023-11-12T10:35:11.909Z,101285.84
2023-11-12T10:36:17.464Z,101279.06
2023-11-12T10:37:20.956Z,101284.69
2023-11-12T10:38:26.632Z,101288.88
2023-11-12T10:39:35.970Z,101293.84
2023-11-12T10:40:41.395Z,101289.78
2023-11-12T10:41:44.421Z,101291.19
2023-11-12T10:42:48.302Z,101295.34
2023-11-12T10:43:59.227Z,101292.34
2023-11-12T10:45:03.145Z,101293.31
2023-11-12T10:46:08.782Z,101286.63
2023-11-12T10:47:14.162Z,101290.28
2023-11-12T10:48:21.218Z,101287.03
2023-11-12T10:49:27.607Z,101287.03
2023-11-12T10:50:31.292Z,101284.25
2023-11-12T10:51:37.605Z,101282.84
2023-11-12T10:52:41.883Z,101275.19
2023-11-12T10:53:47.557Z,101271.44
2023-11-12T10:54:52.586Z,101272.91
2023-11-12T10:55:56.343Z,101267.13
2023-11-12T10:57:01.674Z,101268.34
2023-11-12T10:58:05.660Z,101277.88
2023-11-12T10:59:13.317Z,101283.13
2023-11-12T11:00:18.083Z,101272.72
2023-11-12T11:01:22.833Z,101264.91
2023-11-12T11:02:31.160Z,101276.16
2023-11-12T11:03:35.962Z,101290.06
2023-11-12T11:04:39.983Z,101291.84
2023-11-12T11:05:43.744Z,101286.81
2023-11-12T11:06:47.649Z,101294.22
2023-11-12T11:07:50.546Z,101288.00
2023-11-12T11:08:54.855Z,101285.63
2023-11-12T11:09:57.981Z,101279.09
2023-11-12T11:11:02.188Z,101282.28
2023-11-12T11:12:06.665Z,101295.97
2023-11-12T11:13:11.764Z,101298.34
2023-11-12T11:14:29.607Z,101294.13
2023-11-12T11:15:49.352Z,101280.41
2023-11-12T11:16:54.628Z,101288.59
2023-11-12T11:17:57.795Z,101296.22
2023-11-12T11:19:01.658Z,101298.56
2023-11-12T11:20:06.398Z,101293.44
2023-11-12T11:21:14.788Z,101294.28
2023-11-12T11:22:28.273Z,101289.88
2023-11-12T11:23:42.818Z,101293.53
2023-11-12T11:24:46.973Z,101292.94
2023-11-12T11:25:50.057Z,101293.31
2023-11-12T11:26:55.010Z,101291.69
2023-11-12T11:28:20.164Z,101298.94
2023-11-12T11:29:23.924Z,101299.47
2023-11-12T11:30:29.864Z,101288.81
2023-11-12T11:31:33.241Z,101279.69
2023-11-12T11:32:37.605Z,101289.91
2023-11-12T11:33:48.629Z,101292.16
2023-11-12T11:34:53.373Z,101273.22
2023-11-12T11:35:55.983Z,101264.97
2023-11-12T11:37:00.681Z,101270.19
2023-11-12T11:38:13.404Z,101277.69
2023-11-12T11:39:34.331Z,101269.13
2023-11-12T11:40:39.384Z,101270.97
2023-11-12T11:42:21.188Z,101269.19
2023-11-12T11:43:35.520Z,101267.22
2023-11-12T11:44:50.914Z,101264.81
2023-11-12T11:46:15.141Z,101272.00
2023-11-12T11:47:20.469Z,101268.31
2023-11-12T11:48:23.709Z,101258.81
2023-11-12T11:49:28.050Z,101256.38
2023-11-12T11:50:46.436Z,101259.75
2023-11-12T11:51:51.265Z,101261.28
2023-11-12T11:52:54.243Z,101252.94
2023-11-12T11:53:57.706Z,101251.25
2023-11-12T11:55:05.151Z,101250.53
2023-11-12T11:56:14.918Z,101259.91
2023-11-12T11:57:21.384Z,101254.97
2023-11-12T11:58:26.629Z,101258.34
2023-11-12T11:59:33.286Z,101264.28
2023-11-12T12:00:37.303Z,101261.34
2023-11-12T12:01:48.071Z,101257.22
2023-11-12T12:02:51.101Z,101257.81
2023-11-12T12:04:03.961Z,101256.91
2023-11-12T12:05:07.750Z,101253.41
2023-11-12T12:06:18.884Z,101256.72
2023-11-12T12:07:23.396Z,101249.59
2023-11-12T12:08:27.102Z,101251.25
2023-11-12T12:09:30.080Z,101252.91
2023-11-12T12:10:35.913Z,101244.53
2023-11-12T12:11:41.745Z,101243.44
2023-11-12T12:12:46.246Z,101251.78
2023-11-12T12:13:57.430Z,101250.34
2023-11-12T12:15:01.448Z,101241.72
2023-11-12T12:16:06.301Z,101249.59
2023-11-12T12:17:12.251Z,101248.22
2023-11-12T12:18:20.199Z,101253.19
2023-11-12T12:19:25.048Z,101253.50
2023-11-12T12:20:39.380Z,101263.59